sensor_id;sensor_type;location;lat;lon;timestamp;temperature;humidity
41678;DHT22;27364;49.026;8.712;2022-09-23T01:27:05;9.30;99.90
41678;DHT22;27364;49.026;8.712;2022-09-23T01:43:12;9.10;99.90
41678;DHT22;27364;49.026;8.712;2022-09-23T01:45:44;9.10;99.90
41678;DHT22;27364;49.026;8.712;2022-09-23T01:48:16;9.10;99.90
41678;DHT22;27364;49.026;8.712;2022-09-23T01:50:59;9.10;99.90
41678;DHT22;27364;49.026;8.712;2022-09-23T01:56:04;9.10;99.90
41678;DHT22;27364;49.026;8.712;2022-09-23T01:58:45;9.10;99.90
41678;DHT22;27364;49.026;8.712;2022-09-23T02:01:18;9.10;99.90
41678;DHT22;27364;49.026;8.712;2022-09-23T02:04:00;9.20;99.90
41678;DHT22;27364;49.026;8.712;2022-09-23T02:06:33;9.30;99.90
41678;DHT22;27364;49.026;8.712;2022-09-23T02:09:06;9.30;99.90
41678;DHT22;27364;49.026;8.712;2022-09-23T02:11:35;9.10;99.90
41678;DHT22;27364;49.026;8.712;2022-09-23T02:14:02;8.90;99.90
41678;DHT22;27364;49.026;8.712;2022-09-23T02:16:37;8.80;99.90
41678;DHT22;27364;49.026;8.712;2022-09-23T02:19:11;8.50;99.90
41678;DHT22;27364;49.026;8.712;2022-09-23T02:21:41;8.50;99.90
41678;DHT22;27364;49.026;8.712;2022-09-23T02:24:18;8.40;99.90
41678;DHT22;27364;49.026;8.712;2022-09-23T02:37:37;8.20;99.90
41678;DHT22;27364;49.026;8.712;2022-09-23T02:40:12;8.20;99.90
41678;DHT22;27364;49.026;8.712;2022-09-23T02:43:04;8.10;99.90
41678;DHT22;27364;49.026;8.712;2022-09-23T02:45:30;8.10;99.90
41678;DHT22;27364;49.026;8.712;2022-09-23T02:48:03;8.00;99.90
41678;DHT22;27364;49.026;8.712;2022-09-23T02:50:31;8.00;99.90
41678;DHT22;27364;49.026;8.712;2022-09-23T02:52:57;8.00;99.90
41678;DHT22;27364;49.026;8.712;2022-09-23T02:55:24;8.10;99.90
41678;DHT22;27364;49.026;8.712;2022-09-23T02:57:50;8.10;99.90
41678;DHT22;27364;49.026;8.712;2022-09-23T03:00:17;8.00;99.90
41678;DHT22;27364;49.026;8.712;2022-09-23T03:03:04;8.00;99.90
41678;DHT22;27364;49.026;8.712;2022-09-23T03:05:34;8.00;99.90
41678;DHT22;27364;49.026;8.712;2022-09-23T03:08:24;7.90;99.90
41678;DHT22;27364;49.026;8.712;2022-09-23T03:11:10;8.00;99.90
41678;DHT22;27364;49.026;8.712;2022-09-23T03:13:52;7.90;99.90
41678;DHT22;27364;49.026;8.712;2022-09-23T03:16:25;8.00;99.90
41678;DHT22;27364;49.026;8.712;2022-09-23T03:21:48;8.10;99.90
41678;DHT22;27364;49.026;8.712;2022-09-23T03:24:17;8.20;99.90
41678;DHT22;27364;49.026;8.712;2022-09-23T03:26:45;8.20;99.90
41678;DHT22;27364;49.026;8.712;2022-09-23T03:29:11;8.20;99.90
41678;DHT22;27364;49.026;8.712;2022-09-23T03:31:38;8.40;99.90
41678;DHT22;27364;49.026;8.712;2022-09-23T03:34:12;8.50;99.90
41678;DHT22;27364;49.026;8.712;2022-09-23T03:36:45;8.50;99.90
41678;DHT22;27364;49.026;8.712;2022-09-23T03:39:40;8.50;99.90
41678;DHT22;27364;49.026;8.712;2022-09-23T03:42:12;8.60;99.90
41678;DHT22;27364;49.026;8.712;2022-09-23T03:44:42;8.60;99.90
41678;DHT22;27364;49.026;8.712;2022-09-23T03:47:11;8.70;99.90
41678;DHT22;27364;49.026;8.712;2022-09-23T03:49:38;8.70;99.90
41678;DHT22;27364;49.026;8.712;2022-09-23T03:52:05;8.70;99.90
41678;DHT22;27364;49.026;8.712;2022-09-23T03:54:31;8.70;99.90
41678;DHT22;27364;49.026;8.712;2022-09-23T03:56:58;8.80;99.90
41678;DHT22;27364;49.026;8.712;2022-09-23T03:59:28;8.80;99.90
41678;DHT22;27364;49.026;8.712;2022-09-23T04:01:54;8.80;99.90
41678;DHT22;27364;49.026;8.712;2022-09-23T04:04:20;8.70;99.90
41678;DHT22;27364;49.026;8.712;2022-09-23T04:06:46;8.70;99.90
41678;DHT22;27364;49.026;8.712;2022-09-23T04:09:11;8.80;99.90
41678;DHT22;27364;49.026;8.712;2022-09-23T04:11:37;8.70;99.90
41678;DHT22;27364;49.026;8.712;2022-09-23T04:14:02;8.70;99.90
41678;DHT22;27364;49.026;8.712;2022-09-23T04:16:28;8.70;99.90
41678;DHT22;27364;49.026;8.712;2022-09-23T04:18:54;8.80;99.90
41678;DHT22;27364;49.026;8.712;2022-09-23T04:21:20;8.70;99.90
41678;DHT22;27364;49.026;8.712;2022-09-23T04:23:45;8.70;99.90
41678;DHT22;27364;49.026;8.712;2022-09-23T04:26:11;8.70;99.90
41678;DHT22;27364;49.026;8.712;2022-09-23T04:28:37;8.70;99.90
41678;DHT22;27364;49.026;8.712;2022-09-23T04:31:04;8.60;99.90
41678;DHT22;27364;49.026;8.712;2022-09-23T04:33:30;8.60;99.90
41678;DHT22;27364;49.026;8.712;2022-09-23T04:35:56;8.50;99.90
41678;DHT22;27364;49.026;8.712;2022-09-23T04:38:22;8.50;99.90
41678;DHT22;27364;49.026;8.712;2022-09-23T04:40:48;8.50;99.90
41678;DHT22;27364;49.026;8.712;2022-09-23T04:43:14;8.40;99.90
41678;DHT22;27364;49.026;8.712;2022-09-23T04:45:43;8.50;99.90
41678;DHT22;27364;49.026;8.712;2022-09-23T04:48:10;8.40;99.90
41678;DHT22;27364;49.026;8.712;2022-09-23T04:50:37;8.40;99.90
41678;DHT22;27364;49.026;8.712;2022-09-23T04:53:04;8.30;99.90
41678;DHT22;27364;49.026;8.712;2022-09-23T04:55:30;8.20;99.90
41678;DHT22;27364;49.026;8.712;2022-09-23T04:57:56;8.10;99.90
41678;DHT22;27364;49.026;8.712;2022-09-23T05:00:22;8.00;99.90
41678;DHT22;27364;49.026;8.712;2022-09-23T05:02:49;8.00;99.90
41678;DHT22;27364;49.026;8.712;2022-09-23T05:05:16;8.00;99.90
41678;DHT22;27364;49.026;8.712;2022-09-23T05:07:49;8.10;99.90
41678;DHT22;27364;49.026;8.712;2022-09-23T05:10:15;8.10;99.90
41678;DHT22;27364;49.026;8.712;2022-09-23T05:12:42;8.00;99.90
41678;DHT22;27364;49.026;8.712;2022-09-23T05:15:07;8.00;99.90
41678;DHT22;27364;49.026;8.712;2022-09-23T05:17:33;8.00;99.90
41678;DHT22;27364;49.026;8.712;2022-09-23T05:19:58;8.10;99.90
41678;DHT22;27364;49.026;8.712;2022-09-23T05:22:25;8.10;99.90
41678;DHT22;27364;49.026;8.712;2022-09-23T05:24:53;8.10;99.90
41678;DHT22;27364;49.026;8.712;2022-09-23T05:27:19;8.10;99.90
41678;DHT22;27364;49.026;8.712;2022-09-23T05:29:46;8.20;99.90
41678;DHT22;27364;49.026;8.712;2022-09-23T05:32:12;8.30;99.90
41678;DHT22;27364;49.026;8.712;2022-09-23T05:34:38;8.30;99.90
41678;DHT22;27364;49.026;8.712;2022-09-23T05:37:03;8.30;99.90
41678;DHT22;27364;49.026;8.712;2022-09-23T05:39:29;8.30;99.90
41678;DHT22;27364;49.026;8.712;2022-09-23T05:41:55;8.30;99.90
41678;DHT22;27364;49.026;8.712;2022-09-23T05:44:21;8.30;99.90
41678;DHT22;27364;49.026;8.712;2022-09-23T05:46:46;8.30;99.90
41678;DHT22;27364;49.026;8.712;2022-09-23T05:49:12;8.30;99.90
41678;DHT22;27364;49.026;8.712;2022-09-23T05:51:37;8.20;99.90
41678;DHT22;27364;49.026;8.712;2022-09-23T05:54:03;8.30;99.90
41678;DHT22;27364;49.026;8.712;2022-09-23T05:56:30;8.30;99.90
41678;DHT22;27364;49.026;8.712;2022-09-23T05:58:58;8.30;99.90
41678;DHT22;27364;49.026;8.712;2022-09-23T06:01:27;8.40;99.90
41678;DHT22;27364;49.026;8.712;2022-09-23T06:03:56;8.40;99.90
41678;DHT22;27364;49.026;8.712;2022-09-23T06:06:32;8.50;99.90
41678;DHT22;27364;49.026;8.712;2022-09-23T06:08:58;8.50;99.90
41678;DHT22;27364;49.026;8.712;2022-09-23T06:11:25;8.60;99.90
41678;DHT22;27364;49.026;8.712;2022-09-23T06:13:55;8.70;99.90
41678;DHT22;27364;49.026;8.712;2022-09-23T06:16:20;8.80;99.90
41678;DHT22;27364;49.026;8.712;2022-09-23T06:18:46;8.80;99.90
41678;DHT22;27364;49.026;8.712;2022-09-23T06:21:14;8.90;99.90
41678;DHT22;27364;49.026;8.712;2022-09-23T06:23:40;9.00;99.90
41678;DHT22;27364;49.026;8.712;2022-09-23T06:26:07;9.10;99.90
41678;DHT22;27364;49.026;8.712;2022-09-23T06:28:35;9.20;99.90
41678;DHT22;27364;49.026;8.712;2022-09-23T06:31:04;9.30;99.90
41678;DHT22;27364;49.026;8.712;2022-09-23T06:33:30;9.30;99.90
41678;DHT22;27364;49.026;8.712;2022-09-23T06:36:01;9.40;99.90
41678;DHT22;27364;49.026;8.712;2022-09-23T06:38:28;9.50;99.90
41678;DHT22;27364;49.026;8.712;2022-09-23T06:40:55;9.60;99.90
41678;DHT22;27364;49.026;8.712;2022-09-23T06:43:22;9.60;99.90
41678;DHT22;27364;49.026;8.712;2022-09-23T06:45:52;9.70;99.90
41678;DHT22;27364;49.026;8.712;2022-09-23T06:48:18;9.80;99.90
41678;DHT22;27364;49.026;8.712;2022-09-23T06:50:44;9.90;99.90
41678;DHT22;27364;49.026;8.712;2022-09-23T06:53:10;9.90;99.90
41678;DHT22;27364;49.026;8.712;2022-09-23T06:55:37;9.90;99.90
41678;DHT22;27364;49.026;8.712;2022-09-23T06:58:02;10.00;99.90
41678;DHT22;27364;49.026;8.712;2022-09-23T07:00:28;10.10;99.90
41678;DHT22;27364;49.026;8.712;2022-09-23T07:02:53;10.20;99.90
41678;DHT22;27364;49.026;8.712;2022-09-23T07:05:19;10.30;99.90
41678;DHT22;27364;49.026;8.712;2022-09-23T07:07:47;10.30;99.90
41678;DHT22;27364;49.026;8.712;2022-09-23T07:10:12;10.40;99.90
41678;DHT22;27364;49.026;8.712;2022-09-23T07:12:38;10.50;99.90
41678;DHT22;27364;49.026;8.712;2022-09-23T07:15:05;10.50;99.90
41678;DHT22;27364;49.026;8.712;2022-09-23T07:17:31;10.60;99.90
41678;DHT22;27364;49.026;8.712;2022-09-23T07:19:57;10.60;99.90
41678;DHT22;27364;49.026;8.712;2022-09-23T07:22:24;10.70;99.90
41678;DHT22;27364;49.026;8.712;2022-09-23T07:24:51;10.70;99.90
41678;DHT22;27364;49.026;8.712;2022-09-23T07:27:25;10.80;99.90
41678;DHT22;27364;49.026;8.712;2022-09-23T07:29:51;10.90;99.90
41678;DHT22;27364;49.026;8.712;2022-09-23T07:32:18;10.90;99.90
41678;DHT22;27364;49.026;8.712;2022-09-23T07:34:44;10.90;99.90
41678;DHT22;27364;49.026;8.712;2022-09-23T07:37:11;11.00;99.90
41678;DHT22;27364;49.026;8.712;2022-09-23T07:39:37;11.00;99.90
41678;DHT22;27364;49.026;8.712;2022-09-23T07:42:07;11.10;99.90
41678;DHT22;27364;49.026;8.712;2022-09-23T07:44:33;11.10;99.90
41678;DHT22;27364;49.026;8.712;2022-09-23T07:46:59;11.20;99.90
41678;DHT22;27364;49.026;8.712;2022-09-23T07:49:25;11.30;99.90
41678;DHT22;27364;49.026;8.712;2022-09-23T07:51:51;11.30;99.90
41678;DHT22;27364;49.026;8.712;2022-09-23T07:54:18;11.40;99.90
41678;DHT22;27364;49.026;8.712;2022-09-23T07:56:44;11.40;99.90
41678;DHT22;27364;49.026;8.712;2022-09-23T07:59:13;11.50;99.90
41678;DHT22;27364;49.026;8.712;2022-09-23T08:01:47;11.50;99.90
41678;DHT22;27364;49.026;8.712;2022-09-23T08:04:17;11.60;99.90
41678;DHT22;27364;49.026;8.712;2022-09-23T08:06:48;11.80;99.90
41678;DHT22;27364;49.026;8.712;2022-09-23T08:09:16;11.80;99.90
41678;DHT22;27364;49.026;8.712;2022-09-23T08:11:42;11.80;99.90
41678;DHT22;27364;49.026;8.712;2022-09-23T08:14:12;11.90;99.90
41678;DHT22;27364;49.026;8.712;2022-09-23T08:16:41;11.90;99.90
41678;DHT22;27364;49.026;8.712;2022-09-23T08:19:08;11.90;99.90
41678;DHT22;27364;49.026;8.712;2022-09-23T08:21:34;12.00;99.90
41678;DHT22;27364;49.026;8.712;2022-09-23T08:24:00;12.00;99.90
41678;DHT22;27364;49.026;8.712;2022-09-23T08:26:27;12.00;99.90
41678;DHT22;27364;49.026;8.712;2022-09-23T08:28:53;12.20;99.90
41678;DHT22;27364;49.026;8.712;2022-09-23T08:31:21;12.20;99.90
41678;DHT22;27364;49.026;8.712;2022-09-23T08:33:47;12.30;99.90
41678;DHT22;27364;49.026;8.712;2022-09-23T08:36:12;12.30;99.90
41678;DHT22;27364;49.026;8.712;2022-09-23T08:38:38;12.30;99.90
41678;DHT22;27364;49.026;8.712;2022-09-23T08:43:35;12.50;99.90
41678;DHT22;27364;49.026;8.712;2022-09-23T08:46:07;12.60;99.90
41678;DHT22;27364;49.026;8.712;2022-09-23T08:48:40;12.60;99.90
41678;DHT22;27364;49.026;8.712;2022-09-23T08:51:14;12.70;99.90
41678;DHT22;27364;49.026;8.712;2022-09-23T08:53:42;12.70;99.90
41678;DHT22;27364;49.026;8.712;2022-09-23T08:56:13;12.90;99.90
41678;DHT22;27364;49.026;8.712;2022-09-23T09:01:38;12.90;99.90
41678;DHT22;27364;49.026;8.712;2022-09-23T09:04:20;13.00;99.90
41678;DHT22;27364;49.026;8.712;2022-09-23T09:07:26;13.10;99.90
41678;DHT22;27364;49.026;8.712;2022-09-23T09:12:33;13.40;99.90
41678;DHT22;27364;49.026;8.712;2022-09-23T09:15:18;13.50;99.90
41678;DHT22;27364;49.026;8.712;2022-09-23T09:18:03;13.60;99.90
41678;DHT22;27364;49.026;8.712;2022-09-23T09:20:44;13.80;99.90
41678;DHT22;27364;49.026;8.712;2022-09-23T09:23:21;13.90;99.90
41678;DHT22;27364;49.026;8.712;2022-09-23T09:25:58;14.10;99.90
41678;DHT22;27364;49.026;8.712;2022-09-23T09:28:39;14.20;99.90
41678;DHT22;27364;49.026;8.712;2022-09-23T09:31:19;14.20;99.90
41678;DHT22;27364;49.026;8.712;2022-09-23T09:33:59;14.30;99.90
41678;DHT22;27364;49.026;8.712;2022-09-23T09:36:47;14.50;99.90
41678;DHT22;27364;49.026;8.712;2022-09-23T09:39:14;14.70;99.90
41678;DHT22;27364;49.026;8.712;2022-09-23T09:41:49;15.00;99.90
41678;DHT22;27364;49.026;8.712;2022-09-23T09:52:30;15.20;99.90
41678;DHT22;27364;49.026;8.712;2022-09-23T09:55:27;15.50;99.90
41678;DHT22;27364;49.026;8.712;2022-09-23T09:57:59;15.40;99.90
41678;DHT22;27364;49.026;8.712;2022-09-23T10:03:00;15.60;99.90
41678;DHT22;27364;49.026;8.712;2022-09-23T10:05:32;15.70;99.90
41678;DHT22;27364;49.026;8.712;2022-09-23T10:11:03;16.00;99.90
41678;DHT22;27364;49.026;8.712;2022-09-23T10:13:30;16.10;99.90
41678;DHT22;27364;49.026;8.712;2022-09-23T10:15:58;16.20;99.90
41678;DHT22;27364;49.026;8.712;2022-09-23T10:21:11;16.60;99.90
41678;DHT22;27364;49.026;8.712;2022-09-23T10:23:43;16.60;99.90
41678;DHT22;27364;49.026;8.712;2022-09-23T10:26:10;16.50;99.90
41678;DHT22;27364;49.026;8.712;2022-09-23T10:31:14;16.90;99.90
41678;DHT22;27364;49.026;8.712;2022-09-23T10:33:45;17.00;99.90
41678;DHT22;27364;49.026;8.712;2022-09-23T10:36:14;17.10;99.90
41678;DHT22;27364;49.026;8.712;2022-09-23T10:38:39;17.00;99.90
41678;DHT22;27364;49.026;8.712;2022-09-23T10:41:15;17.10;99.90
41678;DHT22;27364;49.026;8.712;2022-09-23T10:49:53;17.50;99.90
41678;DHT22;27364;49.026;8.712;2022-09-23T11:05:18;17.90;99.90
41678;DHT22;27364;49.026;8.712;2022-09-23T11:10:36;18.00;98.60
41678;DHT22;27364;49.026;8.712;2022-09-23T11:13:09;18.00;99.20
41678;DHT22;27364;49.026;8.712;2022-09-23T11:26:27;18.50;97.30
41678;DHT22;27364;49.026;8.712;2022-09-23T11:29:00;18.80;97.80
41678;DHT22;27364;49.026;8.712;2022-09-23T11:33:57;19.00;96.20
41678;DHT22;27364;49.026;8.712;2022-09-23T11:38:58;19.00;95.20
41678;DHT22;27364;49.026;8.712;2022-09-23T11:41:26;19.10;96.00
41678;DHT22;27364;49.026;8.712;2022-09-23T11:43:55;19.00;95.50
41678;DHT22;27364;49.026;8.712;2022-09-23T11:46:26;19.00;96.10
41678;DHT22;27364;49.026;8.712;2022-09-23T11:49:14;19.00;95.80
41678;DHT22;27364;49.026;8.712;2022-09-23T11:56:44;19.20;92.10
41678;DHT22;27364;49.026;8.712;2022-09-23T12:04:43;19.50;94.30
41678;DHT22;27364;49.026;8.712;2022-09-23T12:07:11;19.70;92.60
41678;DHT22;27364;49.026;8.712;2022-09-23T12:12:22;19.80;93.80
41678;DHT22;27364;49.026;8.712;2022-09-23T12:22:52;19.70;92.80
41678;DHT22;27364;49.026;8.712;2022-09-23T12:28:02;19.80;92.50
41678;DHT22;27364;49.026;8.712;2022-09-23T12:30:30;19.90;90.80
41678;DHT22;27364;49.026;8.712;2022-09-23T12:33:07;19.80;93.20
41678;DHT22;27364;49.026;8.712;2022-09-23T12:35:35;19.90;93.90
41678;DHT22;27364;49.026;8.712;2022-09-23T12:38:06;19.80;92.40
41678;DHT22;27364;49.026;8.712;2022-09-23T12:40:36;19.80;91.00
41678;DHT22;27364;49.026;8.712;2022-09-23T12:43:04;19.80;90.80
41678;DHT22;27364;49.026;8.712;2022-09-23T12:45:31;19.80;92.10
41678;DHT22;27364;49.026;8.712;2022-09-23T12:48:02;19.80;91.50
41678;DHT22;27364;49.026;8.712;2022-09-23T12:50:45;19.70;91.80
41678;DHT22;27364;49.026;8.712;2022-09-23T12:55:55;19.80;92.20
41678;DHT22;27364;49.026;8.712;2022-09-23T13:01:17;19.90;91.20
41678;DHT22;27364;49.026;8.712;2022-09-23T13:03:53;19.80;92.00
41678;DHT22;27364;49.026;8.712;2022-09-23T13:06:38;19.90;90.90
41678;DHT22;27364;49.026;8.712;2022-09-23T13:09:38;20.00;89.60
41678;DHT22;27364;49.026;8.712;2022-09-23T13:11:57;20.10;91.40
41678;DHT22;27364;49.026;8.712;2022-09-23T13:14:24;20.20;90.00
41678;DHT22;27364;49.026;8.712;2022-09-23T13:16:50;20.20;86.20
41678;DHT22;27364;49.026;8.712;2022-09-23T13:29:39;19.70;90.30
41678;DHT22;27364;49.026;8.712;2022-09-23T13:32:04;19.60;88.70
41678;DHT22;27364;49.026;8.712;2022-09-23T13:34:35;19.50;90.20
41678;DHT22;27364;49.026;8.712;2022-09-23T13:37:19;19.40;90.70
41678;DHT22;27364;49.026;8.712;2022-09-23T13:39:45;19.20;90.50
41678;DHT22;27364;49.026;8.712;2022-09-23T13:42:22;19.20;92.00
41678;DHT22;27364;49.026;8.712;2022-09-23T13:44:52;19.10;91.80
41678;DHT22;27364;49.026;8.712;2022-09-23T13:47:22;19.00;91.80
41678;DHT22;27364;49.026;8.712;2022-09-23T13:49:48;18.90;92.50
41678;DHT22;27364;49.026;8.712;2022-09-23T13:52:24;18.90;92.40
41678;DHT22;27364;49.026;8.712;2022-09-23T13:54:51;18.80;92.60
41678;DHT22;27364;49.026;8.712;2022-09-23T13:57:24;18.70;92.50
41678;DHT22;27364;49.026;8.712;2022-09-23T13:59:49;19.00;93.30
41678;DHT22;27364;49.026;8.712;2022-09-23T14:02:15;18.80;91.20
41678;DHT22;27364;49.026;8.712;2022-09-23T14:04:41;18.70;92.80
41678;DHT22;27364;49.026;8.712;2022-09-23T14:07:07;18.70;92.70
41678;DHT22;27364;49.026;8.712;2022-09-23T14:09:33;18.80;92.10
41678;DHT22;27364;49.026;8.712;2022-09-23T14:11:59;18.90;91.60
41678;DHT22;27364;49.026;8.712;2022-09-23T14:14:26;18.90;91.50
41678;DHT22;27364;49.026;8.712;2022-09-23T14:16:53;18.70;92.10
41678;DHT22;27364;49.026;8.712;2022-09-23T14:19:21;18.70;91.30
41678;DHT22;27364;49.026;8.712;2022-09-23T14:21:47;18.70;92.60
41678;DHT22;27364;49.026;8.712;2022-09-23T14:24:18;18.80;90.80
41678;DHT22;27364;49.026;8.712;2022-09-23T14:27:29;18.70;92.10
41678;DHT22;27364;49.026;8.712;2022-09-23T14:29:30;18.90;92.10
41678;DHT22;27364;49.026;8.712;2022-09-23T14:31:57;18.90;92.10
41678;DHT22;27364;49.026;8.712;2022-09-23T14:34:36;19.00;91.00
41678;DHT22;27364;49.026;8.712;2022-09-23T14:37:09;18.90;90.60
41678;DHT22;27364;49.026;8.712;2022-09-23T14:39:58;19.00;91.50
41678;DHT22;27364;49.026;8.712;2022-09-23T14:42:24;18.80;90.20
41678;DHT22;27364;49.026;8.712;2022-09-23T14:44:50;18.60;91.70
41678;DHT22;27364;49.026;8.712;2022-09-23T14:47:15;18.50;92.40
41678;DHT22;27364;49.026;8.712;2022-09-23T14:49:47;18.50;91.70
41678;DHT22;27364;49.026;8.712;2022-09-23T14:52:33;18.40;91.50
41678;DHT22;27364;49.026;8.712;2022-09-23T14:54:59;18.20;92.10
41678;DHT22;27364;49.026;8.712;2022-09-23T14:57:26;18.10;93.20
41678;DHT22;27364;49.026;8.712;2022-09-23T14:59:53;18.10;94.20
41678;DHT22;27364;49.026;8.712;2022-09-23T15:02:26;18.00;93.80
41678;DHT22;27364;49.026;8.712;2022-09-23T15:07:35;17.90;93.60
41678;DHT22;27364;49.026;8.712;2022-09-23T15:10:00;17.80;93.60
41678;DHT22;27364;49.026;8.712;2022-09-23T15:12:26;17.80;93.30
41678;DHT22;27364;49.026;8.712;2022-09-23T15:14:52;17.90;94.00
41678;DHT22;27364;49.026;8.712;2022-09-23T15:19:55;17.70;93.90
41678;DHT22;27364;49.026;8.712;2022-09-23T15:22:21;17.60;94.30
41678;DHT22;27364;49.026;8.712;2022-09-23T15:24:47;17.60;94.40
41678;DHT22;27364;49.026;8.712;2022-09-23T15:27:23;17.50;95.00
41678;DHT22;27364;49.026;8.712;2022-09-23T15:29:50;17.40;94.90
41678;DHT22;27364;49.026;8.712;2022-09-23T15:32:15;17.40;95.20
41678;DHT22;27364;49.026;8.712;2022-09-23T15:34:41;17.40;95.40
41678;DHT22;27364;49.026;8.712;2022-09-23T15:37:08;17.40;94.60
41678;DHT22;27364;49.026;8.712;2022-09-23T15:39:35;17.40;95.20
41678;DHT22;27364;49.026;8.712;2022-09-23T15:42:01;17.30;95.50
41678;DHT22;27364;49.026;8.712;2022-09-23T15:44:26;17.30;95.90
41678;DHT22;27364;49.026;8.712;2022-09-23T15:46:53;17.20;96.20
41678;DHT22;27364;49.026;8.712;2022-09-23T15:51:50;17.10;96.90
41678;DHT22;27364;49.026;8.712;2022-09-23T15:54:16;17.00;97.30
41678;DHT22;27364;49.026;8.712;2022-09-23T15:56:41;17.00;97.30
41678;DHT22;27364;49.026;8.712;2022-09-23T15:59:07;16.90;97.60
41678;DHT22;27364;49.026;8.712;2022-09-23T16:01:33;16.90;98.20
41678;DHT22;27364;49.026;8.712;2022-09-23T16:04:00;16.90;99.70
41678;DHT22;27364;49.026;8.712;2022-09-23T16:06:26;16.90;99.90
41678;DHT22;27364;49.026;8.712;2022-09-23T16:08:52;16.90;99.90
41678;DHT22;27364;49.026;8.712;2022-09-23T16:11:19;16.80;99.90
41678;DHT22;27364;49.026;8.712;2022-09-23T16:13:45;16.90;99.90
41678;DHT22;27364;49.026;8.712;2022-09-23T16:16:10;16.90;99.90
41678;DHT22;27364;49.026;8.712;2022-09-23T16:18:36;16.90;99.90
41678;DHT22;27364;49.026;8.712;2022-09-23T16:21:03;16.80;99.90
41678;DHT22;27364;49.026;8.712;2022-09-23T16:23:32;16.80;99.90
41678;DHT22;27364;49.026;8.712;2022-09-23T16:26:13;16.70;99.90
41678;DHT22;27364;49.026;8.712;2022-09-23T16:28:40;16.70;99.90
41678;DHT22;27364;49.026;8.712;2022-09-23T16:31:07;16.60;99.90
41678;DHT22;27364;49.026;8.712;2022-09-23T16:33:34;16.60;99.90
41678;DHT22;27364;49.026;8.712;2022-09-23T16:36:00;16.60;99.90
41678;DHT22;27364;49.026;8.712;2022-09-23T16:38:26;16.50;99.90
41678;DHT22;27364;49.026;8.712;2022-09-23T16:40:53;16.60;99.90
41678;DHT22;27364;49.026;8.712;2022-09-23T16:43:20;16.50;99.90
41678;DHT22;27364;49.026;8.712;2022-09-23T16:45:46;16.40;99.90
41678;DHT22;27364;49.026;8.712;2022-09-23T16:48:12;16.30;99.90
41678;DHT22;27364;49.026;8.712;2022-09-23T16:50:37;16.20;99.90
41678;DHT22;27364;49.026;8.712;2022-09-23T16:53:04;16.10;99.90
41678;DHT22;27364;49.026;8.712;2022-09-23T16:55:30;16.00;99.90
41678;DHT22;27364;49.026;8.712;2022-09-23T16:57:55;16.00;99.90
41678;DHT22;27364;49.026;8.712;2022-09-23T17:00:21;16.00;99.90
41678;DHT22;27364;49.026;8.712;2022-09-23T17:03:06;15.90;99.90
41678;DHT22;27364;49.026;8.712;2022-09-23T17:05:50;15.80;99.90
41678;DHT22;27364;49.026;8.712;2022-09-23T17:08:16;15.70;99.90
41678;DHT22;27364;49.026;8.712;2022-09-23T17:10:43;15.70;99.90
41678;DHT22;27364;49.026;8.712;2022-09-23T17:13:09;15.60;99.90
41678;DHT22;27364;49.026;8.712;2022-09-23T17:15:39;15.60;99.90
41678;DHT22;27364;49.026;8.712;2022-09-23T17:18:05;15.50;99.90
41678;DHT22;27364;49.026;8.712;2022-09-23T17:20:31;15.40;99.90
41678;DHT22;27364;49.026;8.712;2022-09-23T17:22:56;15.30;99.90
41678;DHT22;27364;49.026;8.712;2022-09-23T17:25:22;15.30;99.90
41678;DHT22;27364;49.026;8.712;2022-09-23T17:27:47;15.20;99.90
41678;DHT22;27364;49.026;8.712;2022-09-23T17:30:13;15.10;99.90
41678;DHT22;27364;49.026;8.712;2022-09-23T17:32:39;15.10;99.90
41678;DHT22;27364;49.026;8.712;2022-09-23T17:35:05;15.00;99.90
41678;DHT22;27364;49.026;8.712;2022-09-23T17:37:31;15.00;99.90
41678;DHT22;27364;49.026;8.712;2022-09-23T17:39:57;14.90;99.90
41678;DHT22;27364;49.026;8.712;2022-09-23T17:42:24;14.90;99.90
41678;DHT22;27364;49.026;8.712;2022-09-23T17:44:50;14.80;99.90
41678;DHT22;27364;49.026;8.712;2022-09-23T17:47:16;14.70;99.90
41678;DHT22;27364;49.026;8.712;2022-09-23T17:49:41;14.70;99.90
41678;DHT22;27364;49.026;8.712;2022-09-23T17:52:07;14.70;99.90
41678;DHT22;27364;49.026;8.712;2022-09-23T17:54:33;14.60;99.90
41678;DHT22;27364;49.026;8.712;2022-09-23T17:57:01;14.60;99.90
41678;DHT22;27364;49.026;8.712;2022-09-23T17:59:27;14.60;99.90
41678;DHT22;27364;49.026;8.712;2022-09-23T18:01:52;14.50;99.90
41678;DHT22;27364;49.026;8.712;2022-09-23T18:04:18;14.40;99.90
41678;DHT22;27364;49.026;8.712;2022-09-23T18:06:44;14.30;99.90
41678;DHT22;27364;49.026;8.712;2022-09-23T18:09:09;14.30;99.90
41678;DHT22;27364;49.026;8.712;2022-09-23T18:11:36;14.30;99.90
41678;DHT22;27364;49.026;8.712;2022-09-23T18:14:04;14.30;99.90
41678;DHT22;27364;49.026;8.712;2022-09-23T18:16:30;14.20;99.90
41678;DHT22;27364;49.026;8.712;2022-09-23T18:18:58;14.30;99.90
41678;DHT22;27364;49.026;8.712;2022-09-23T18:21:26;14.20;99.90
41678;DHT22;27364;49.026;8.712;2022-09-23T18:23:51;14.20;99.90
41678;DHT22;27364;49.026;8.712;2022-09-23T18:26:17;14.20;99.90
41678;DHT22;27364;49.026;8.712;2022-09-23T18:28:43;14.20;99.90
41678;DHT22;27364;49.026;8.712;2022-09-23T18:31:09;14.10;99.90
41678;DHT22;27364;49.026;8.712;2022-09-23T18:33:35;14.10;99.90
41678;DHT22;27364;49.026;8.712;2022-09-23T18:36:01;14.10;99.90
41678;DHT22;27364;49.026;8.712;2022-09-23T18:38:27;14.10;99.90
41678;DHT22;27364;49.026;8.712;2022-09-23T18:40:54;14.00;99.90
41678;DHT22;27364;49.026;8.712;2022-09-23T18:43:21;14.00;99.90
41678;DHT22;27364;49.026;8.712;2022-09-23T18:45:53;14.00;99.90
41678;DHT22;27364;49.026;8.712;2022-09-23T18:48:19;13.90;99.90
41678;DHT22;27364;49.026;8.712;2022-09-23T18:51:05;13.90;99.90
41678;DHT22;27364;49.026;8.712;2022-09-23T18:53:31;13.90;99.90
41678;DHT22;27364;49.026;8.712;2022-09-23T18:55:56;13.80;99.90
41678;DHT22;27364;49.026;8.712;2022-09-23T18:58:22;13.70;99.90
41678;DHT22;27364;49.026;8.712;2022-09-23T19:00:47;13.60;99.90
41678;DHT22;27364;49.026;8.712;2022-09-23T19:03:15;13.60;99.90
41678;DHT22;27364;49.026;8.712;2022-09-23T19:05:42;13.70;99.90
41678;DHT22;27364;49.026;8.712;2022-09-23T19:08:08;13.60;99.90
41678;DHT22;27364;49.026;8.712;2022-09-23T19:10:35;13.60;99.90
41678;DHT22;27364;49.026;8.712;2022-09-23T19:13:01;13.50;99.90
41678;DHT22;27364;49.026;8.712;2022-09-23T19:15:26;13.50;99.90
41678;DHT22;27364;49.026;8.712;2022-09-23T19:17:52;13.50;99.90
41678;DHT22;27364;49.026;8.712;2022-09-23T19:20:19;13.40;99.90
41678;DHT22;27364;49.026;8.712;2022-09-23T19:22:47;13.40;99.90
41678;DHT22;27364;49.026;8.712;2022-09-23T19:25:13;13.30;99.90
41678;DHT22;27364;49.026;8.712;2022-09-23T19:27:40;13.30;99.90
41678;DHT22;27364;49.026;8.712;2022-09-23T19:32:43;13.30;99.90
41678;DHT22;27364;49.026;8.712;2022-09-23T19:35:08;13.20;99.90
41678;DHT22;27364;49.026;8.712;2022-09-23T19:37:34;13.30;99.90